Annapolis, Washington
Current Conditions -  °F | °C
As of 11:55 AM on Thursday 27 Nov 2014 (Local Time) from KPWT Reporting Station
Overcast Overcast  
Wind Chill: 12°   Ceiling: 600
Heat Index: 12°   Visibility: 7mi
Dew Point: 12°   Wind: 16mph
Humidity: 100%   Direction: 180°S
Pressure: 29.83"   Gusts: 25mph
Location:  47.5378°N, 122.589°W
Report Text: KPWT 271955Z AUTO 18014G22KT 7SM BKN006 OVC022 12/12 A2983 RMK AO1 P0002
Loading
Personal Weather Stations






























Interactive Weather Map New forecast layout! Learn more

10-Day Weather Forecast

Advertisements
Track Severe Weather on mobile